createdAt,value
2022-07-25T00:00:46.901Z,64.90
2022-07-25T00:03:18.399Z,64.40
2022-07-25T00:05:47.314Z,64.70
2022-07-25T00:08:16.837Z,65.10
2022-07-25T00:10:45.383Z,65.20
2022-07-25T00:13:13.798Z,65.50
2022-07-25T00:15:41.911Z,65.70
2022-07-25T00:18:10.176Z,66.10
2022-07-25T00:20:38.578Z,65.70
2022-07-25T00:23:06.778Z,66.30
2022-07-25T00:25:37.132Z,66.50
2022-07-25T00:28:11.962Z,66.70
2022-07-25T00:30:40.439Z,66.90
2022-07-25T00:33:08.734Z,67.40
2022-07-25T00:35:37.565Z,67.40
2022-07-25T00:38:05.706Z,67.70
2022-07-25T00:40:37.860Z,68.10
2022-07-25T00:43:06.149Z,68.40
2022-07-25T00:45:34.758Z,68.60
2022-07-25T00:48:03.481Z,68.90
2022-07-25T00:50:35.682Z,69.40
2022-07-25T00:53:04.289Z,69.70
2022-07-25T00:55:34.006Z,69.60
2022-07-25T00:58:03.970Z,69.60
2022-07-25T01:00:32.626Z,69.70
2022-07-25T01:03:01.315Z,69.90
2022-07-25T01:05:29.816Z,70.40
2022-07-25T01:07:58.699Z,70.80
2022-07-25T01:10:27.206Z,71.30
2022-07-25T01:12:56.957Z,71.20
2022-07-25T01:15:27.190Z,71.50
2022-07-25T01:17:55.557Z,71.70
2022-07-25T01:20:28.497Z,71.80
2022-07-25T01:22:57.911Z,72.10
2022-07-25T01:25:29.087Z,72.70
2022-07-25T01:27:58.526Z,72.70
2022-07-25T01:30:27.106Z,72.50
2022-07-25T01:32:55.447Z,72.60
2022-07-25T01:35:25.307Z,72.30
2022-07-25T01:37:53.382Z,72.90
2022-07-25T01:40:21.758Z,73.00
2022-07-25T01:42:49.982Z,72.90
2022-07-25T01:45:19.356Z,73.10
2022-07-25T01:47:47.701Z,73.30
2022-07-25T01:50:16.154Z,73.50
2022-07-25T01:52:46.138Z,73.50
2022-07-25T01:55:16.904Z,73.30
2022-07-25T01:57:49.530Z,73.40
2022-07-25T02:00:18.665Z,73.60
2022-07-25T02:02:47.591Z,73.80
2022-07-25T02:05:16.830Z,74.40
2022-07-25T02:07:46.600Z,74.70
2022-07-25T02:10:14.738Z,74.80
2022-07-25T02:12:43.107Z,74.80
2022-07-25T02:15:11.912Z,74.50
2022-07-25T02:17:40.226Z,74.50
2022-07-25T02:20:09.368Z,75.10
2022-07-25T02:22:37.504Z,74.90
2022-07-25T02:25:09.414Z,75.20
2022-07-25T02:27:38.373Z,75.50
2022-07-25T02:30:07.757Z,75.80
2022-07-25T02:32:36.052Z,76.40
2022-07-25T02:35:13.096Z,76.60
2022-07-25T02:37:50.446Z,77.50
2022-07-25T02:40:20.430Z,76.90
2022-07-25T02:42:48.722Z,77.10
2022-07-25T02:45:17.278Z,77.50
2022-07-25T02:47:45.719Z,77.70
2022-07-25T02:50:15.185Z,78.00
2022-07-25T02:52:43.705Z,78.00
2022-07-25T02:55:12.509Z,77.60
2022-07-25T02:57:42.599Z,78.40
2022-07-25T03:00:14.206Z,78.40
2022-07-25T03:02:42.765Z,78.70
2022-07-25T03:05:15.598Z,78.80
2022-07-25T03:07:44.493Z,78.90
2022-07-25T03:10:14.079Z,79.10
2022-07-25T03:12:45.267Z,79.30
2022-07-25T03:15:14.603Z,79.60
2022-07-25T03:17:43.834Z,80.00
2022-07-25T03:20:12.888Z,80.30
2022-07-25T03:22:41.522Z,80.70
2022-07-25T03:25:15.609Z,81.10
2022-07-25T03:27:51.868Z,81.00
2022-07-25T03:30:20.097Z,81.00
2022-07-25T03:32:48.449Z,81.40
2022-07-25T03:35:16.793Z,81.20
2022-07-25T03:37:45.800Z,81.30
2022-07-25T03:40:15.999Z,81.30
2022-07-25T03:42:44.955Z,81.40
2022-07-25T03:45:14.783Z,81.50
2022-07-25T03:47:42.958Z,81.80
2022-07-25T03:50:11.930Z,81.70
2022-07-25T03:52:40.053Z,81.80
2022-07-25T03:55:09.158Z,82.10
2022-07-25T03:57:37.897Z,82.60
2022-07-25T04:00:08.196Z,83.10
2022-07-25T04:02:38.813Z,83.60
2022-07-25T04:05:09.039Z,84.10
2022-07-25T04:07:38.351Z,83.70
2022-07-25T04:10:07.476Z,84.00
2022-07-25T04:12:36.233Z,83.60
2022-07-25T04:15:05.035Z,84.10
2022-07-25T04:17:33.132Z,85.00
2022-07-25T04:20:03.238Z,85.90
2022-07-25T04:22:34.029Z,86.50
2022-07-25T04:25:02.802Z,87.90
2022-07-25T04:27:31.092Z,89.60
2022-07-25T04:30:00.091Z,90.20
2022-07-25T04:32:28.297Z,90.80
2022-07-25T04:34:56.941Z,91.40
2022-07-25T04:37:26.766Z,91.90
2022-07-25T04:39:55.331Z,91.80
2022-07-25T04:42:23.756Z,91.80
2022-07-25T04:44:52.159Z,91.40
2022-07-25T04:47:20.691Z,91.30
2022-07-25T04:49:48.888Z,91.50
2022-07-25T04:52:17.198Z,91.50
2022-07-25T04:54:47.122Z,91.10
2022-07-25T04:57:15.367Z,91.20
2022-07-25T04:59:44.385Z,91.30
2022-07-25T05:02:12.711Z,91.50
2022-07-25T05:04:45.209Z,91.40
2022-07-25T05:07:13.949Z,90.90
2022-07-25T05:09:42.411Z,91.00
2022-07-25T05:12:12.740Z,90.80
2022-07-25T05:14:41.050Z,90.40
2022-07-25T05:17:09.312Z,90.10
2022-07-25T05:19:37.801Z,89.80
2022-07-25T05:22:06.797Z,90.30
2022-07-25T05:24:36.691Z,90.40
2022-07-25T05:27:07.669Z,90.50
2022-07-25T05:29:37.615Z,90.40
2022-07-25T05:32:07.534Z,90.60
2022-07-25T05:34:35.704Z,91.40
2022-07-25T05:37:04.570Z,91.70
2022-07-25T05:39:32.817Z,91.80
2022-07-25T05:42:01.349Z,92.00
2022-07-25T05:44:29.583Z,92.00
2022-07-25T05:47:03.169Z,91.90
2022-07-25T05:49:31.477Z,92.40
2022-07-25T05:51:59.961Z,92.20
2022-07-25T05:54:28.340Z,92.40
2022-07-25T05:56:56.637Z,92.10
2022-07-25T05:59:25.009Z,92.50
2022-07-25T06:01:53.428Z,93.00
2022-07-25T06:04:27.131Z,92.70
2022-07-25T06:06:55.726Z,92.80
2022-07-25T06:09:25.011Z,92.30
2022-07-25T06:12:00.455Z,92.20
2022-07-25T06:14:29.812Z,92.20
2022-07-25T06:16:58.075Z,92.30
2022-07-25T06:19:28.040Z,91.70
2022-07-25T06:21:56.227Z,91.00
2022-07-25T06:24:24.522Z,91.20
2022-07-25T06:26:52.872Z,91.40
2022-07-25T06:29:21.259Z,90.90
2022-07-25T06:31:49.567Z,91.10
2022-07-25T06:34:17.953Z,90.60
2022-07-25T06:36:47.698Z,90.60
2022-07-25T06:39:15.894Z,90.70
2022-07-25T06:41:44.173Z,91.00
2022-07-25T06:44:12.489Z,89.20
2022-07-25T06:46:40.880Z,90.00
2022-07-25T06:49:09.538Z,88.90
2022-07-25T06:51:37.951Z,89.10
2022-07-25T06:54:08.544Z,88.90
2022-07-25T06:56:37.296Z,89.20
2022-07-25T06:59:05.755Z,88.40
2022-07-25T07:01:34.015Z,88.10
2022-07-25T07:04:02.845Z,88.70
2022-07-25T07:06:31.646Z,87.90
2022-07-25T07:09:00.238Z,88.00
2022-07-25T07:11:30.108Z,88.70
2022-07-25T07:14:00.095Z,88.80
2022-07-25T07:16:28.676Z,87.70
2022-07-25T07:18:57.264Z,86.70
2022-07-25T07:21:26.032Z,86.30
2022-07-25T07:23:54.528Z,86.10
2022-07-25T07:26:25.244Z,86.00
2022-07-25T07:28:56.087Z,84.30
2022-07-25T07:31:24.622Z,83.70
2022-07-25T07:33:53.010Z,83.40
2022-07-25T07:36:23.332Z,80.40
2022-07-25T07:38:53.016Z,78.90
2022-07-25T07:41:21.907Z,75.10
2022-07-25T07:43:50.058Z,69.50
2022-07-25T07:46:19.977Z,64.20
2022-07-25T07:48:48.391Z,58.20
2022-07-25T07:51:16.640Z,56.90
2022-07-25T07:54:02.174Z,57.00
2022-07-25T07:56:30.420Z,54.70
2022-07-25T07:58:59.038Z,52.90
2022-07-25T08:01:29.230Z,51.50
2022-07-25T08:03:57.704Z,50.90
2022-07-25T08:06:27.776Z,49.90
2022-07-25T08:08:56.522Z,51.20
2022-07-25T08:11:27.449Z,49.60
2022-07-25T08:13:55.921Z,48.80
2022-07-25T08:16:24.910Z,49.60
2022-07-25T08:18:55.082Z,48.80
2022-07-25T08:21:23.440Z,48.30
2022-07-25T08:23:51.745Z,47.60
2022-07-25T08:26:20.074Z,49.60
2022-07-25T08:28:55.529Z,50.60
2022-07-25T08:31:33.557Z,49.80
2022-07-25T08:34:19.518Z,48.60
2022-07-25T08:36:48.014Z,47.80
2022-07-25T08:39:16.603Z,46.60
2022-07-25T08:41:46.872Z,45.50
2022-07-25T08:44:28.574Z,45.30
2022-07-25T08:47:07.674Z,46.00
2022-07-25T08:49:39.575Z,46.50
2022-07-25T08:52:19.899Z,45.40
2022-07-25T08:54:49.212Z,44.20
2022-07-25T09:00:36.778Z,43.10
2022-07-25T09:03:06.546Z,43.10
2022-07-25T09:05:41.532Z,42.40
2022-07-25T09:08:11.389Z,43.10
2022-07-25T09:10:42.397Z,42.90
2022-07-25T09:13:14.684Z,43.60
2022-07-25T09:15:46.948Z,45.80
2022-07-25T09:18:17.139Z,47.00
2022-07-25T09:20:48.886Z,46.20
2022-07-25T09:23:29.598Z,45.00
2022-07-25T09:26:05.351Z,43.60
2022-07-25T09:28:34.826Z,44.40
2022-07-25T09:31:03.703Z,45.20
2022-07-25T09:33:33.645Z,45.40
2022-07-25T09:36:12.326Z,44.70
2022-07-25T09:38:40.697Z,45.50
2022-07-25T09:41:09.453Z,44.80
2022-07-25T09:43:38.681Z,45.70
2022-07-25T09:46:07.445Z,45.30
2022-07-25T09:48:36.411Z,46.30
2022-07-25T09:51:07.073Z,45.70
2022-07-25T09:53:35.646Z,46.90
2022-07-25T09:56:04.084Z,47.60
2022-07-25T09:58:32.590Z,47.10
2022-07-25T10:01:07.182Z,47.20
2022-07-25T10:03:50.228Z,47.00
2022-07-25T10:06:23.308Z,47.30
2022-07-25T10:08:52.807Z,49.40
2022-07-25T10:11:22.836Z,49.00
2022-07-25T10:13:52.032Z,48.70
2022-07-25T10:16:22.179Z,47.50
2022-07-25T10:18:52.614Z,48.10
2022-07-25T10:21:26.805Z,47.40
2022-07-25T10:24:00.675Z,48.40
2022-07-25T10:26:30.511Z,48.40
2022-07-25T10:29:04.663Z,48.30
2022-07-25T10:31:37.899Z,48.20
2022-07-25T10:34:08.777Z,47.10
2022-07-25T10:36:47.445Z,46.60
2022-07-25T10:39:16.848Z,46.00
2022-07-25T10:41:50.537Z,45.90
2022-07-25T10:44:18.773Z,45.70
2022-07-25T10:46:47.299Z,45.80
2022-07-25T10:49:31.817Z,46.30
2022-07-25T10:52:04.631Z,46.60
2022-07-25T10:54:37.769Z,45.20
2022-07-25T10:57:07.530Z,44.60
2022-07-25T10:59:37.566Z,44.60
2022-07-25T11:02:08.503Z,43.60
2022-07-25T11:04:37.595Z,43.40
2022-07-25T11:07:12.421Z,44.50
2022-07-25T11:09:41.989Z,45.50
2022-07-25T11:12:34.988Z,46.00
2022-07-25T11:15:06.092Z,46.50
2022-07-25T11:17:35.308Z,47.40
2022-07-25T11:20:08.245Z,47.00
2022-07-25T11:22:39.005Z,47.30
2022-07-25T11:25:16.409Z,48.00
2022-07-25T11:27:44.909Z,47.30
2022-07-25T11:30:15.288Z,47.90
2022-07-25T11:32:45.246Z,48.30
2022-07-25T11:35:18.412Z,47.90
2022-07-25T11:37:50.842Z,48.30
2022-07-25T11:40:19.874Z,49.20
2022-07-25T11:42:49.695Z,49.50
2022-07-25T11:45:19.996Z,47.90
2022-07-25T11:47:50.204Z,48.20
2022-07-25T11:50:18.671Z,48.50
2022-07-25T11:52:48.514Z,48.40
2022-07-25T11:55:19.200Z,47.90
2022-07-25T11:57:48.608Z,48.10
2022-07-25T12:00:20.930Z,48.20
2022-07-25T12:02:50.458Z,48.70
2022-07-25T12:05:21.927Z,48.90
2022-07-25T12:07:54.426Z,49.30
2022-07-25T12:10:24.956Z,48.40
2022-07-25T12:12:55.820Z,48.50
2022-07-25T12:15:30.922Z,49.50
2022-07-25T12:18:00.274Z,48.40
2022-07-25T12:20:30.504Z,48.40
2022-07-25T12:23:03.211Z,48.00
2022-07-25T12:25:32.041Z,46.90
2022-07-25T12:28:01.838Z,46.30
2022-07-25T12:30:31.299Z,46.60
2022-07-25T12:33:00.866Z,46.20
2022-07-25T12:35:29.928Z,46.30
2022-07-25T12:38:00.237Z,45.30
2022-07-25T12:40:28.623Z,45.20
2022-07-25T12:42:59.724Z,45.50
2022-07-25T12:45:29.330Z,45.30
2022-07-25T12:47:58.146Z,45.60
2022-07-25T12:50:27.328Z,44.70
2022-07-25T12:52:56.174Z,45.20
2022-07-25T12:55:26.259Z,45.50
2022-07-25T12:57:56.664Z,46.40
2022-07-25T13:00:25.767Z,46.40
2022-07-25T13:02:57.666Z,46.60
2022-07-25T13:05:28.602Z,47.20
2022-07-25T13:07:56.953Z,47.20
2022-07-25T13:10:26.748Z,47.80
2022-07-25T13:12:56.926Z,48.30
2022-07-25T13:15:28.302Z,48.40
2022-07-25T13:17:56.527Z,48.30
2022-07-25T13:20:25.066Z,48.80
2022-07-25T13:22:53.351Z,48.60
2022-07-25T13:25:21.736Z,48.60
2022-07-25T13:27:51.544Z,48.40
2022-07-25T13:30:20.203Z,47.80
2022-07-25T13:32:50.175Z,47.40
2022-07-25T13:35:20.653Z,47.40
2022-07-25T13:37:50.276Z,47.80
2022-07-25T13:40:18.685Z,48.20
2022-07-25T13:42:47.298Z,48.00
2022-07-25T13:45:17.338Z,48.60
2022-07-25T13:47:45.477Z,48.70
2022-07-25T13:50:13.862Z,48.50
2022-07-25T13:52:42.135Z,49.50
2022-07-25T13:55:12.096Z,49.10
2022-07-25T13:57:40.516Z,48.70
2022-07-25T14:00:10.227Z,48.80
2022-07-25T14:02:40.061Z,49.30
2022-07-25T14:05:09.395Z,49.30
2022-07-25T14:07:40.161Z,49.00
2022-07-25T14:10:09.714Z,49.00
2022-07-25T14:20:15.558Z,49.20
2022-07-25T14:22:44.385Z,49.80
2022-07-25T14:25:13.563Z,52.20
2022-07-25T14:27:42.031Z,58.90
2022-07-25T14:30:11.571Z,58.40
2022-07-25T14:32:40.107Z,60.60
2022-07-25T14:36:02.084Z,63.80
2022-07-25T14:38:22.847Z,65.10
2022-07-25T14:40:51.103Z,69.70
2022-07-25T14:43:19.616Z,71.20
2022-07-25T14:45:47.882Z,68.90
2022-07-25T14:48:16.147Z,69.10
2022-07-25T14:50:44.455Z,67.30
2022-07-25T14:53:13.510Z,68.00
2022-07-25T14:55:43.255Z,68.50
2022-07-25T14:58:12.978Z,66.30
2022-07-25T15:00:43.625Z,68.50
2022-07-25T15:03:12.112Z,69.70
2022-07-25T15:05:42.233Z,66.50
2022-07-25T15:08:12.663Z,65.70
2022-07-25T15:10:42.298Z,64.90
2022-07-25T15:15:59.305Z,67.20
2022-07-25T15:18:27.405Z,66.30
2022-07-25T15:20:55.806Z,67.30
2022-07-25T15:23:25.085Z,68.10
2022-07-25T15:26:01.793Z,69.30
2022-07-25T15:28:30.843Z,70.10
2022-07-25T15:30:59.417Z,73.30
2022-07-25T15:33:27.700Z,74.50
2022-07-25T15:35:56.109Z,74.00
2022-07-25T15:38:24.855Z,73.50
2022-07-25T15:40:54.918Z,70.70
2022-07-25T15:43:23.795Z,70.50
2022-07-25T15:45:51.995Z,70.10
2022-07-25T15:48:20.758Z,71.30
2022-07-25T15:50:51.541Z,71.00
2022-07-25T15:53:20.297Z,67.20
2022-07-25T15:55:48.590Z,66.20
2022-07-25T15:58:18.328Z,61.30
2022-07-25T16:00:46.818Z,58.70
2022-07-25T16:03:15.539Z,57.80
2022-07-25T16:05:45.477Z,57.20
2022-07-25T16:08:13.577Z,55.70
2022-07-25T16:10:41.738Z,55.20
2022-07-25T16:13:10.130Z,54.00
2022-07-25T16:15:40.471Z,52.90
2022-07-25T16:18:09.153Z,53.10
2022-07-25T16:20:37.394Z,53.00
2022-07-25T16:23:05.899Z,53.30
2022-07-25T16:25:34.117Z,52.30
2022-07-25T16:28:02.515Z,51.90
2022-07-25T16:30:30.775Z,52.00
2022-07-25T16:33:00.397Z,51.90
2022-07-25T16:35:28.730Z,52.00
2022-07-25T16:37:57.044Z,51.80
2022-07-25T16:40:30.230Z,51.60
2022-07-25T16:42:59.952Z,51.90
2022-07-25T16:45:31.090Z,51.50
2022-07-25T16:48:08.240Z,51.40
2022-07-25T16:50:37.442Z,51.20
2022-07-25T16:53:05.732Z,50.40
2022-07-25T16:55:34.901Z,50.80
2022-07-25T16:58:03.191Z,50.70
2022-07-25T17:00:31.770Z,50.60
2022-07-25T17:03:02.640Z,50.70
2022-07-25T17:05:31.254Z,51.00
2022-07-25T17:08:00.533Z,51.10
2022-07-25T17:10:29.977Z,51.30
2022-07-25T17:12:59.245Z,51.60
2022-07-25T17:15:27.823Z,51.80
2022-07-25T17:17:56.164Z,52.10
2022-07-25T17:20:26.017Z,52.50
2022-07-25T17:22:54.330Z,53.00
2022-07-25T17:25:23.239Z,52.70
2022-07-25T17:27:51.607Z,53.10
2022-07-25T17:30:19.981Z,53.10
2022-07-25T17:32:48.286Z,52.90
2022-07-25T17:35:17.426Z,52.70
2022-07-25T17:37:47.283Z,52.50
2022-07-25T17:40:15.592Z,52.10
2022-07-25T17:42:45.597Z,52.10
2022-07-25T17:45:14.532Z,55.40
2022-07-25T17:47:44.152Z,56.80
2022-07-25T17:50:12.764Z,58.00
2022-07-25T17:52:41.046Z,58.70
2022-07-25T17:55:12.057Z,59.20
2022-07-25T17:57:43.469Z,59.50
2022-07-25T18:00:14.474Z,59.90
2022-07-25T18:02:43.416Z,60.20
2022-07-25T18:05:11.734Z,60.60
2022-07-25T18:07:45.272Z,60.80
2022-07-25T18:10:23.499Z,61.10
2022-07-25T18:12:52.281Z,61.50
2022-07-25T18:15:20.704Z,60.90
2022-07-25T18:17:49.923Z,61.10
2022-07-25T18:20:18.238Z,61.00
2022-07-25T18:22:46.545Z,61.30
2022-07-25T18:25:16.667Z,61.40
2022-07-25T18:27:46.357Z,61.50
2022-07-25T18:30:16.875Z,61.80
2022-07-25T18:32:45.716Z,62.20
2022-07-25T18:35:14.859Z,62.20
2022-07-25T18:37:43.993Z,62.30
2022-07-25T18:40:13.138Z,62.30
2022-07-25T18:42:42.892Z,62.40
2022-07-25T18:45:12.785Z,62.50
2022-07-25T18:47:41.361Z,62.20
2022-07-25T18:50:10.751Z,62.20
2022-07-25T18:52:39.331Z,62.20
2022-07-25T18:55:09.996Z,62.30
2022-07-25T18:57:38.423Z,62.30
2022-07-25T19:00:10.768Z,62.10
2022-07-25T19:02:39.243Z,62.40
2022-07-25T19:05:08.996Z,62.10
2022-07-25T19:07:37.792Z,62.60
2022-07-25T19:10:07.069Z,62.40
2022-07-25T19:12:35.418Z,62.90
2022-07-25T19:15:04.147Z,62.80
2022-07-25T19:17:35.912Z,62.80
2022-07-25T19:20:05.083Z,63.00
2022-07-25T19:22:33.551Z,63.50
2022-07-25T19:25:05.794Z,63.50
2022-07-25T19:27:34.702Z,63.40
2022-07-25T19:30:05.117Z,63.80
2022-07-25T19:32:35.490Z,63.70
2022-07-25T19:35:03.714Z,63.10
2022-07-25T19:37:32.043Z,63.40
2022-07-25T19:40:00.306Z,63.40
2022-07-25T19:42:28.765Z,63.30
2022-07-25T19:44:57.241Z,63.50
2022-07-25T19:47:25.774Z,63.70
2022-07-25T19:49:55.720Z,64.10
2022-07-25T19:52:24.013Z,64.20
2022-07-25T19:54:54.612Z,64.20
2022-07-25T19:57:23.155Z,64.70
2022-07-25T19:59:51.501Z,64.20
2022-07-25T20:02:20.564Z,64.50
2022-07-25T20:04:48.996Z,64.90
2022-07-25T20:07:21.548Z,65.40
2022-07-25T20:09:49.844Z,65.20
2022-07-25T20:12:21.193Z,65.80
2022-07-25T20:14:49.549Z,65.50
2022-07-25T20:17:18.459Z,65.70
2022-07-25T20:19:47.527Z,66.00
2022-07-25T20:22:15.976Z,66.40
2022-07-25T20:24:45.979Z,66.90
2022-07-25T20:27:19.155Z,66.80
2022-07-25T20:29:47.771Z,67.00
2022-07-25T20:32:16.198Z,67.20
2022-07-25T20:34:45.347Z,67.20
2022-07-25T20:37:13.737Z,67.30
2022-07-25T20:39:42.065Z,67.30
2022-07-25T20:42:12.108Z,67.50
2022-07-25T20:44:42.920Z,67.50
2022-07-25T20:47:13.663Z,67.80
2022-07-25T20:49:42.113Z,67.40
2022-07-25T20:52:10.969Z,67.70
2022-07-25T20:54:39.956Z,67.70
2022-07-25T20:57:08.506Z,68.10
2022-07-25T20:59:38.662Z,68.40
2022-07-25T21:02:07.006Z,68.20
2022-07-25T21:04:35.429Z,68.50
2022-07-25T21:07:03.842Z,68.60
2022-07-25T21:09:33.605Z,68.60
2022-07-25T21:12:03.116Z,68.80
2022-07-25T21:14:31.664Z,69.00
2022-07-25T21:17:01.927Z,69.30
2022-07-25T21:19:30.844Z,69.40
2022-07-25T21:21:59.074Z,69.90
2022-07-25T21:24:27.610Z,70.00
2022-07-25T21:26:55.935Z,70.00
2022-07-25T21:29:24.192Z,70.70
2022-07-25T21:31:52.605Z,70.90
2022-07-25T21:34:25.661Z,71.00
2022-07-25T21:36:53.745Z,70.90
2022-07-25T21:39:22.069Z,71.10
2022-07-25T21:41:55.027Z,71.10
2022-07-25T21:44:25.297Z,71.20
2022-07-25T21:46:54.285Z,71.40
2022-07-25T21:49:42.723Z,71.70
2022-07-25T21:52:13.899Z,72.00
2022-07-25T21:54:42.873Z,72.20
2022-07-25T21:57:13.905Z,72.30
2022-07-25T21:59:43.771Z,72.50
2022-07-25T22:02:12.070Z,72.80
2022-07-25T22:04:42.290Z,73.20
2022-07-25T22:07:10.918Z,73.30
2022-07-25T22:09:39.238Z,74.10
2022-07-25T22:12:08.175Z,73.80
2022-07-25T22:14:38.204Z,74.00
2022-07-25T22:17:06.749Z,73.80
2022-07-25T22:19:35.166Z,74.10
2022-07-25T22:22:06.864Z,74.20
2022-07-25T22:24:35.700Z,73.50
2022-07-25T22:27:04.237Z,73.30
2022-07-25T22:29:32.775Z,73.70
2022-07-25T22:32:03.833Z,73.20
2022-07-25T22:34:33.049Z,73.40
2022-07-25T22:37:01.404Z,73.20
2022-07-25T22:39:31.103Z,73.00
2022-07-25T22:41:59.661Z,72.70
2022-07-25T22:44:28.670Z,73.00
2022-07-25T22:46:57.441Z,73.10
2022-07-25T22:49:26.276Z,72.90
2022-07-25T22:51:56.908Z,73.10
2022-07-25T22:54:26.010Z,73.30
2022-07-25T22:56:55.588Z,73.10
2022-07-25T22:59:23.909Z,73.40
2022-07-25T23:01:52.187Z,73.90
2022-07-25T23:04:21.131Z,73.50
2022-07-25T23:06:50.764Z,73.10
2022-07-25T23:09:19.001Z,72.60
2022-07-25T23:11:47.432Z,72.50
2022-07-25T23:14:17.410Z,71.30
2022-07-25T23:17:05.941Z,71.20
2022-07-25T23:19:34.330Z,70.10
2022-07-25T23:22:02.827Z,69.30
2022-07-25T23:24:34.395Z,68.80
2022-07-25T23:27:05.939Z,67.90
2022-07-25T23:29:35.961Z,66.80
2022-07-25T23:32:04.864Z,67.50
2022-07-25T23:34:33.063Z,67.30
2022-07-25T23:37:02.738Z,66.60
2022-07-25T23:39:32.042Z,66.10
2022-07-25T23:42:00.485Z,66.30
2022-07-25T23:44:29.042Z,66.10
2022-07-25T23:46:59.921Z,66.30
2022-07-25T23:49:29.811Z,66.70
2022-07-25T23:52:00.508Z,66.30
2022-07-25T23:54:29.248Z,66.90
2022-07-25T23:56:57.465Z,66.70
2022-07-25T23:59:25.769Z,66.90
